createdAt,value
2023-08-08T00:03:03.293Z,35
2023-08-08T00:15:03.204Z,35
2023-08-08T00:27:03.345Z,35
2023-08-08T00:39:03.126Z,35
2023-08-08T00:51:03.341Z,35
2023-08-08T01:03:03.286Z,35
2023-08-08T01:15:03.217Z,35
2023-08-08T01:27:03.180Z,35
2023-08-08T01:39:03.336Z,35
2023-08-08T01:51:03.295Z,35
2023-08-08T02:03:03.321Z,35
2023-08-08T02:15:03.218Z,35
2023-08-08T02:27:03.356Z,35
2023-08-08T02:39:03.300Z,35
2023-08-08T02:51:03.280Z,35
2023-08-08T03:03:03.340Z,35
2023-08-08T03:15:03.455Z,35
2023-08-08T03:27:03.485Z,35
2023-08-08T03:39:03.357Z,35
2023-08-08T03:51:03.314Z,35
2023-08-08T04:03:03.523Z,35
2023-08-08T04:15:03.448Z,35
2023-08-08T04:27:03.391Z,36.5
2023-08-08T04:39:03.372Z,38
2023-08-08T04:51:03.511Z,39
2023-08-08T05:03:03.533Z,38
2023-08-08T05:15:03.574Z,40
2023-08-08T05:27:03.371Z,40.5
2023-08-08T05:39:03.561Z,36.5
2023-08-08T05:51:03.485Z,36.5
2023-08-08T06:03:03.490Z,36
2023-08-08T06:15:03.648Z,34.5
2023-08-08T06:27:03.717Z,34
2023-08-08T06:39:03.594Z,34
2023-08-08T06:51:03.531Z,33.5
2023-08-08T07:03:03.732Z,32
2023-08-08T07:15:03.652Z,33.5
2023-08-08T07:27:03.547Z,33.5
2023-08-08T07:39:03.662Z,33.5
2023-08-08T07:51:03.699Z,33.5
2023-08-08T08:03:03.726Z,26.5
2023-08-08T08:15:03.601Z,25
2023-08-08T08:27:03.815Z,23
2023-08-08T08:39:03.741Z,24.5
2023-08-08T08:51:03.776Z,23.5
2023-08-08T09:03:03.700Z,28
2023-08-08T09:15:04.098Z,20.5
2023-08-08T09:27:03.720Z,20
2023-08-08T09:39:03.838Z,22.5
2023-08-08T09:51:03.714Z,25
2023-08-08T10:03:04.328Z,23.5
2023-08-08T10:15:03.750Z,23
2023-08-08T10:27:03.793Z,29
2023-08-08T10:39:03.869Z,30
2023-08-08T10:51:03.989Z,30.5
2023-08-08T11:03:03.791Z,30.5
2023-08-08T11:15:03.866Z,30.5
2023-08-08T11:27:03.900Z,30.5
2023-08-08T11:39:03.981Z,29.5
2023-08-08T11:51:03.847Z,29.5
2023-08-08T12:03:04.594Z,29.5
2023-08-08T12:27:03.979Z,29.5
2023-08-08T12:39:03.976Z,29.5
2023-08-08T12:51:03.963Z,30.5
2023-08-08T13:03:03.862Z,30.5
2023-08-08T13:15:04.133Z,30.5
2023-08-08T13:27:03.969Z,30.5
2023-08-08T13:39:04.078Z,30.5
2023-08-08T13:51:04.112Z,31.5
2023-08-08T14:03:04.254Z,31
2023-08-08T14:15:03.986Z,31
2023-08-08T14:27:03.969Z,31
2023-08-08T14:39:04.253Z,32
2023-08-08T14:51:04.073Z,32
2023-08-08T15:03:04.035Z,32
2023-08-08T15:15:04.020Z,32
2023-08-08T15:27:04.370Z,32
2023-08-08T15:39:04.201Z,32
2023-08-08T15:51:04.080Z,32
2023-08-08T16:03:04.323Z,32
2023-08-08T16:15:04.229Z,32
2023-08-08T16:27:04.255Z,32
2023-08-08T16:51:04.285Z,32
2023-08-08T17:03:04.315Z,32
2023-08-08T17:15:04.266Z,33
2023-08-08T17:27:04.144Z,32.5
2023-08-08T17:39:04.360Z,32.5
2023-08-08T17:51:04.239Z,32.5
2023-08-08T18:03:04.377Z,32.5
2023-08-08T18:15:04.465Z,32.5
2023-08-08T18:27:04.476Z,33.5
2023-08-08T18:39:04.291Z,33.5
2023-08-08T18:51:04.301Z,32.5
2023-08-08T19:03:04.555Z,33.5
2023-08-08T19:15:04.410Z,33.5
2023-08-08T19:27:04.295Z,33.5
2023-08-08T19:39:04.305Z,33.5
2023-08-08T19:51:04.412Z,33.5
2023-08-08T20:03:04.492Z,33.5
2023-08-08T20:15:04.287Z,33.5
2023-08-08T20:27:04.754Z,35
2023-08-08T20:39:04.503Z,35
2023-08-08T20:51:04.545Z,35
2023-08-08T21:03:04.394Z,35
2023-08-08T21:15:04.544Z,35
2023-08-08T21:27:04.760Z,35
2023-08-08T21:39:04.439Z,35
2023-08-08T21:51:04.552Z,35
2023-08-08T22:03:04.636Z,35
2023-08-08T22:15:04.519Z,35
2023-08-08T22:27:04.660Z,35
2023-08-08T22:39:04.508Z,35
2023-08-08T22:51:04.751Z,35
2023-08-08T23:03:04.822Z,35
2023-08-08T23:15:05.007Z,35
2023-08-08T23:27:04.895Z,35
2023-08-08T23:39:04.969Z,35
2023-08-08T23:51:05.039Z,35
